sensor_id;sensor_type;location;lat;lon;timestamp;pressure;altitude;pressure_sealevel;temperature;humidity
14343;BME280;7255;53.596;9.960;2023-01-27T00:00:09;102156.03;;;4.28;nan
14343;BME280;7255;53.596;9.960;2023-01-27T00:02:36;102150.09;;;4.34;nan
14343;BME280;7255;53.596;9.960;2023-01-27T00:05:03;102137.28;;;4.19;nan
14343;BME280;7255;53.596;9.960;2023-01-27T00:07:30;102139.53;;;4.24;nan
14343;BME280;7255;53.596;9.960;2023-01-27T00:09:56;102147.84;;;4.39;nan
14343;BME280;7255;53.596;9.960;2023-01-27T00:12:24;102138.44;;;4.17;nan
14343;BME280;7255;53.596;9.960;2023-01-27T00:15:11;102147.66;;;4.22;nan
14343;BME280;7255;53.596;9.960;2023-01-27T00:17:37;102146.28;;;4.18;nan
14343;BME280;7255;53.596;9.960;2023-01-27T00:20:05;102207.81;;;4.33;nan
14343;BME280;7255;53.596;9.960;2023-01-27T00:22:31;102136.25;;;4.12;nan
14343;BME280;7255;53.596;9.960;2023-01-27T00:25:16;102157.72;;;4.29;nan
14343;BME280;7255;53.596;9.960;2023-01-27T00:27:42;102157.72;;;4.29;nan
14343;BME280;7255;53.596;9.960;2023-01-27T00:30:11;102148.25;;;4.16;nan
14343;BME280;7255;53.596;9.960;2023-01-27T00:32:37;102155.56;;;4.14;nan
14343;BME280;7255;53.596;9.960;2023-01-27T00:35:22;102154.34;;;4.27;nan
14343;BME280;7255;53.596;9.960;2023-01-27T00:37:49;102158.34;;;4.13;nan
14343;BME280;7255;53.596;9.960;2023-01-27T00:40:16;102169.22;;;4.19;nan
14343;BME280;7255;53.596;9.960;2023-01-27T00:42:43;102164.75;;;4.20;nan
14343;BME280;7255;53.596;9.960;2023-01-27T00:45:11;102161.66;;;4.24;nan
14343;BME280;7255;53.596;9.960;2023-01-27T00:47:55;102161.97;;;4.21;nan
14343;BME280;7255;53.596;9.960;2023-01-27T00:50:21;102164.75;;;4.20;nan
14343;BME280;7255;53.596;9.960;2023-01-27T00:52:47;102170.09;;;4.20;nan
14343;BME280;7255;53.596;9.960;2023-01-27T00:55:15;102176.50;;;4.17;nan
14343;BME280;7255;53.596;9.960;2023-01-27T00:57:41;102180.38;;;4.33;nan
14343;BME280;7255;53.596;9.960;2023-01-27T01:00:11;102179.59;;;4.22;nan
14343;BME280;7255;53.596;9.960;2023-01-27T01:02:38;102179.63;;;4.13;nan
14343;BME280;7255;53.596;9.960;2023-01-27T01:05:04;102177.12;;;4.11;nan
14343;BME280;7255;53.596;9.960;2023-01-27T01:07:31;102171.47;;;4.24;nan
14343;BME280;7255;53.596;9.960;2023-01-27T01:09:57;102196.63;;;4.30;nan
14343;BME280;7255;53.596;9.960;2023-01-27T01:12:23;102194.38;;;4.35;nan
14343;BME280;7255;53.596;9.960;2023-01-27T01:14:50;102192.75;;;4.24;nan
14343;BME280;7255;53.596;9.960;2023-01-27T01:17:17;102202.50;;;4.33;nan
14343;BME280;7255;53.596;9.960;2023-01-27T01:19:44;102185.72;;;4.33;nan
14343;BME280;7255;53.596;9.960;2023-01-27T01:22:10;102245.03;;;4.43;nan
14343;BME280;7255;53.596;9.960;2023-01-27T01:24:36;102208.97;;;4.31;nan
14343;BME280;7255;53.596;9.960;2023-01-27T01:27:03;102206.44;;;4.29;nan
14343;BME280;7255;53.596;9.960;2023-01-27T01:29:29;102213.19;;;4.23;nan
14343;BME280;7255;53.596;9.960;2023-01-27T01:31:56;102207.81;;;4.33;nan
14343;BME280;7255;53.596;9.960;2023-01-27T01:34:24;102209.47;;;4.44;nan
14343;BME280;7255;53.596;9.960;2023-01-27T01:36:50;102198.63;;;4.28;nan
14343;BME280;7255;53.596;9.960;2023-01-27T01:39:17;102209.81;;;4.31;nan
14343;BME280;7255;53.596;9.960;2023-01-27T01:41:43;102203.03;;;4.37;nan
14343;BME280;7255;53.596;9.960;2023-01-27T01:44:20;102212.87;;;4.27;nan
14343;BME280;7255;53.596;9.960;2023-01-27T01:46:46;102203.13;;;4.17;nan
14343;BME280;7255;53.596;9.960;2023-01-27T01:49:13;102207.06;;;4.13;nan
14343;BME280;7255;53.596;9.960;2023-01-27T01:51:43;102190.84;;;4.07;nan
14343;BME280;7255;53.596;9.960;2023-01-27T01:54:12;102214.97;;;4.05;nan
14343;BME280;7255;53.596;9.960;2023-01-27T01:56:43;102205.19;;;3.96;nan
14343;BME280;7255;53.596;9.960;2023-01-27T01:59:14;102210.19;;;4.09;nan
14343;BME280;7255;53.596;9.960;2023-01-27T02:01:41;102216.06;;;4.02;nan
14343;BME280;7255;53.596;9.960;2023-01-27T02:04:09;102221.94;;;4.06;nan
14343;BME280;7255;53.596;9.960;2023-01-27T02:06:41;102212.75;;;3.91;nan
14343;BME280;7255;53.596;9.960;2023-01-27T02:09:09;102216.87;;;4.13;nan
14343;BME280;7255;53.596;9.960;2023-01-27T02:11:36;102219.69;;;4.11;nan
14343;BME280;7255;53.596;9.960;2023-01-27T02:14:02;102219.72;;;4.01;nan
14343;BME280;7255;53.596;9.960;2023-01-27T02:16:29;102223.03;;;4.13;nan
14343;BME280;7255;53.596;9.960;2023-01-27T02:18:55;102231.69;;;4.15;nan
14343;BME280;7255;53.596;9.960;2023-01-27T02:21:21;102229.19;;;4.14;nan
14343;BME280;7255;53.596;9.960;2023-01-27T02:23:55;102224.72;;;4.04;nan
14343;BME280;7255;53.596;9.960;2023-01-27T02:26:27;102232.56;;;4.06;nan
14343;BME280;7255;53.596;9.960;2023-01-27T02:28:56;102225.59;;;4.05;nan
14343;BME280;7255;53.596;9.960;2023-01-27T02:31:23;102237.34;;;4.02;nan
14343;BME280;7255;53.596;9.960;2023-01-27T02:33:52;102234.28;;;3.97;nan
14343;BME280;7255;53.596;9.960;2023-01-27T02:36:21;102225.34;;;3.89;nan
14343;BME280;7255;53.596;9.960;2023-01-27T02:38:49;102239.03;;;3.94;nan
14343;BME280;7255;53.596;9.960;2023-01-27T02:41:19;102222.25;;;3.93;nan
14343;BME280;7255;53.596;9.960;2023-01-27T02:43:49;102232.66;;;3.87;nan
14343;BME280;7255;53.596;9.960;2023-01-27T02:46:16;102239.03;;;3.94;nan
14343;BME280;7255;53.596;9.960;2023-01-27T02:48:42;102246.06;;;3.95;nan
14343;BME280;7255;53.596;9.960;2023-01-27T02:51:09;102239.63;;;3.88;nan
14343;BME280;7255;53.596;9.960;2023-01-27T02:53:35;102240.16;;;4.01;nan
14343;BME280;7255;53.596;9.960;2023-01-27T02:56:02;102249.63;;;4.13;nan
14343;BME280;7255;53.596;9.960;2023-01-27T02:58:29;102237.97;;;3.87;nan
14343;BME280;7255;53.596;9.960;2023-01-27T03:00:56;102250.56;;;3.75;nan
14343;BME280;7255;53.596;9.960;2023-01-27T03:03:23;102252.50;;;3.82;nan
14343;BME280;7255;53.596;9.960;2023-01-27T03:05:49;102250.59;;;3.65;nan
14343;BME280;7255;53.596;9.960;2023-01-27T03:08:16;102254.53;;;3.61;nan
14343;BME280;7255;53.596;9.960;2023-01-27T03:10:42;102264.31;;;3.70;nan
14343;BME280;7255;53.596;9.960;2023-01-27T03:13:09;102263.75;;;3.66;nan
14343;BME280;7255;53.596;9.960;2023-01-27T03:15:35;102245.53;;;3.62;nan
14343;BME280;7255;53.596;9.960;2023-01-27T03:18:20;102252.81;;;3.60;nan
14343;BME280;7255;53.596;9.960;2023-01-27T03:20:48;102228.75;;;3.52;nan
14343;BME280;7255;53.596;9.960;2023-01-27T03:23:16;102269.03;;;3.57;nan
14343;BME280;7255;53.596;9.960;2023-01-27T03:25:44;102268.50;;;3.63;nan
14343;BME280;7255;53.596;9.960;2023-01-27T03:28:12;102271.84;;;3.65;nan
14343;BME280;7255;53.596;9.960;2023-01-27T03:30:39;102273.50;;;3.85;nan
14343;BME280;7255;53.596;9.960;2023-01-27T03:33:06;102280.81;;;3.74;nan
14343;BME280;7255;53.596;9.960;2023-01-27T03:35:35;102287.50;;;3.88;nan
14343;BME280;7255;53.596;9.960;2023-01-27T03:38:05;102283.87;;;3.89;nan
14343;BME280;7255;53.596;9.960;2023-01-27T03:40:49;102290.59;;;3.63;nan
14343;BME280;7255;53.596;9.960;2023-01-27T03:43:34;102288.91;;;3.53;nan
14343;BME280;7255;53.596;9.960;2023-01-27T03:46:18;102288.91;;;3.62;nan
14343;BME280;7255;53.596;9.960;2023-01-27T03:48:48;102293.38;;;3.42;nan
14343;BME280;7255;53.596;9.960;2023-01-27T03:51:17;102290.03;;;3.40;nan
14343;BME280;7255;53.596;9.960;2023-01-27T03:53:44;102304.31;;;3.59;nan
14343;BME280;7255;53.596;9.960;2023-01-27T03:56:11;102288.38;;;3.39;nan
14343;BME280;7255;53.596;9.960;2023-01-27T03:58:38;102299.00;;;3.39;nan
14343;BME280;7255;53.596;9.960;2023-01-27T04:01:06;102306.25;;;3.47;nan
14343;BME280;7255;53.596;9.960;2023-01-27T04:03:34;102305.44;;;3.56;nan
14343;BME280;7255;53.596;9.960;2023-01-27T04:06:21;102293.97;;;3.56;nan
14343;BME280;7255;53.596;9.960;2023-01-27T04:09:08;102285.31;;;3.54;nan
14343;BME280;7255;53.596;9.960;2023-01-27T04:11:35;102309.31;;;3.42;nan
14343;BME280;7255;53.596;9.960;2023-01-27T04:14:20;102306.00;;;3.50;nan
14343;BME280;7255;53.596;9.960;2023-01-27T04:16:46;102302.34;;;3.41;nan
14343;BME280;7255;53.596;9.960;2023-01-27T04:19:13;102314.66;;;3.42;nan
14343;BME280;7255;53.596;9.960;2023-01-27T04:21:41;102315.22;;;3.65;nan
14343;BME280;7255;53.596;9.960;2023-01-27T04:24:09;102316.06;;;3.56;nan
14343;BME280;7255;53.596;9.960;2023-01-27T04:26:42;102317.72;;;3.47;nan
14343;BME280;7255;53.596;9.960;2023-01-27T04:29:10;102309.91;;;3.36;nan
14343;BME280;7255;53.596;9.960;2023-01-27T04:31:37;102319.69;;;3.45;nan
14343;BME280;7255;53.596;9.960;2023-01-27T04:34:03;102319.69;;;3.45;nan
14343;BME280;7255;53.596;9.960;2023-01-27T04:36:30;102326.69;;;3.56;nan
14343;BME280;7255;53.596;9.960;2023-01-27T04:38:57;102324.44;;;3.52;nan
14343;BME280;7255;53.596;9.960;2023-01-27T04:41:24;102311.59;;;3.47;nan
14343;BME280;7255;53.596;9.960;2023-01-27T04:43:50;102320.25;;;3.49;nan
14343;BME280;7255;53.596;9.960;2023-01-27T04:46:16;102331.72;;;3.40;nan
14343;BME280;7255;53.596;9.960;2023-01-27T04:48:43;102331.72;;;3.50;nan
14343;BME280;7255;53.596;9.960;2023-01-27T04:51:09;102323.62;;;3.61;nan
14343;BME280;7255;53.596;9.960;2023-01-27T04:53:35;102331.44;;;3.53;nan
14343;BME280;7255;53.596;9.960;2023-01-27T04:56:05;102333.97;;;3.64;nan
14343;BME280;7255;53.596;9.960;2023-01-27T04:58:32;102342.94;;;3.63;nan
14343;BME280;7255;53.596;9.960;2023-01-27T05:00:58;102327.81;;;3.63;nan
14343;BME280;7255;53.596;9.960;2023-01-27T05:03:25;102355.53;;;3.71;nan
14343;BME280;7255;53.596;9.960;2023-01-27T05:05:51;102367.25;;;3.68;nan
14343;BME280;7255;53.596;9.960;2023-01-27T05:08:17;102354.66;;;3.41;nan
14343;BME280;7255;53.596;9.960;2023-01-27T05:10:43;102360.81;;;3.51;nan
14343;BME280;7255;53.596;9.960;2023-01-27T05:13:11;102351.59;;;3.55;nan
14343;BME280;7255;53.596;9.960;2023-01-27T05:15:37;102358.28;;;3.30;nan
14343;BME280;7255;53.596;9.960;2023-01-27T05:18:04;102359.13;;;3.31;nan
14343;BME280;7255;53.596;9.960;2023-01-27T05:20:30;102361.09;;;3.38;nan
14343;BME280;7255;53.596;9.960;2023-01-27T05:22:57;102369.44;;;3.24;nan
14343;BME280;7255;53.596;9.960;2023-01-27T05:25:44;102360.56;;;3.44;nan
14343;BME280;7255;53.596;9.960;2023-01-27T05:28:11;102360.25;;;3.47;nan
14343;BME280;7255;53.596;9.960;2023-01-27T05:30:38;102357.16;;;3.42;nan
14343;BME280;7255;53.596;9.960;2023-01-27T05:33:04;102347.09;;;3.36;nan
14343;BME280;7255;53.596;9.960;2023-01-27T05:35:32;102348.50;;;3.40;nan
14343;BME280;7255;53.596;9.960;2023-01-27T05:37:59;102348.16;;;3.14;nan
14343;BME280;7255;53.596;9.960;2023-01-27T05:40:26;102356.31;;;3.32;nan
14343;BME280;7255;53.596;9.960;2023-01-27T05:42:52;102356.31;;;3.32;nan
14343;BME280;7255;53.596;9.960;2023-01-27T05:45:20;102356.06;;;3.35;nan
14343;BME280;7255;53.596;9.960;2023-01-27T05:47:48;102362.78;;;3.39;nan
14343;BME280;7255;53.596;9.960;2023-01-27T05:50:15;102351.28;;;3.29;nan
14343;BME280;7255;53.596;9.960;2023-01-27T05:52:41;102347.03;;;3.17;nan
14343;BME280;7255;53.596;9.960;2023-01-27T05:55:08;102359.66;;;3.24;nan
14343;BME280;7255;53.596;9.960;2023-01-27T05:57:34;102365.56;;;3.28;nan
14343;BME280;7255;53.596;9.960;2023-01-27T06:00:01;102362.47;;;3.23;nan
14343;BME280;7255;53.596;9.960;2023-01-27T06:02:28;102367.47;;;3.26;nan
14343;BME280;7255;53.596;9.960;2023-01-27T06:04:54;102360.19;;;3.08;nan
14343;BME280;7255;53.596;9.960;2023-01-27T06:07:21;102387.91;;;3.25;nan
14343;BME280;7255;53.596;9.960;2023-01-27T06:09:47;102378.91;;;3.17;nan
14343;BME280;7255;53.596;9.960;2023-01-27T06:12:14;102385.44;;;3.43;nan
14343;BME280;7255;53.596;9.960;2023-01-27T06:14:40;102398.28;;;3.38;nan
14343;BME280;7255;53.596;9.960;2023-01-27T06:17:07;102391.31;;;3.47;nan
14343;BME280;7255;53.596;9.960;2023-01-27T06:19:34;102393.53;;;3.52;nan
14343;BME280;7255;53.596;9.960;2023-01-27T06:22:00;102387.66;;;3.38;nan
14343;BME280;7255;53.596;9.960;2023-01-27T06:24:27;102400.16;;;3.17;nan
14343;BME280;7255;53.596;9.960;2023-01-27T06:26:54;102393.22;;;3.25;nan
14343;BME280;7255;53.596;9.960;2023-01-27T06:29:20;102402.13;;;3.15;nan
14343;BME280;7255;53.596;9.960;2023-01-27T06:31:47;102403.28;;;3.22;nan
14343;BME280;7255;53.596;9.960;2023-01-27T06:34:13;102419.22;;;3.22;nan
14343;BME280;7255;53.596;9.960;2023-01-27T06:36:41;102430.16;;;3.28;nan
14343;BME280;7255;53.596;9.960;2023-01-27T06:39:07;102418.94;;;3.25;nan
14343;BME280;7255;53.596;9.960;2023-01-27T06:41:34;102429.84;;;3.22;nan
14343;BME280;7255;53.596;9.960;2023-01-27T06:44:00;102409.41;;;3.13;nan
14343;BME280;7255;53.596;9.960;2023-01-27T06:46:26;102431.25;;;3.26;nan
14343;BME280;7255;53.596;9.960;2023-01-27T06:48:52;102434.91;;;3.25;nan
14343;BME280;7255;53.596;9.960;2023-01-27T06:51:19;102443.03;;;3.33;nan
14343;BME280;7255;53.596;9.960;2023-01-27T06:53:46;102439.72;;;3.51;nan
14343;BME280;7255;53.596;9.960;2023-01-27T06:56:12;102442.25;;;3.52;nan
14343;BME280;7255;53.596;9.960;2023-01-27T06:58:39;102450.34;;;3.41;nan
14343;BME280;7255;53.596;9.960;2023-01-27T07:01:05;102454.44;;;3.24;nan
14343;BME280;7255;53.596;9.960;2023-01-27T07:03:32;102451.63;;;3.16;nan
14343;BME280;7255;53.596;9.960;2023-01-27T07:05:58;102451.63;;;3.16;nan
14343;BME280;7255;53.596;9.960;2023-01-27T07:08:24;102455.53;;;3.12;nan
14343;BME280;7255;53.596;9.960;2023-01-27T07:10:52;102465.00;;;3.04;nan
14343;BME280;7255;53.596;9.960;2023-01-27T07:13:18;102463.28;;;2.94;nan
14343;BME280;7255;53.596;9.960;2023-01-27T07:15:44;102463.84;;;2.97;nan
14343;BME280;7255;53.596;9.960;2023-01-27T07:18:11;102472.78;;;2.96;nan
14343;BME280;7255;53.596;9.960;2023-01-27T07:20:38;102479.78;;;2.97;nan
14343;BME280;7255;53.596;9.960;2023-01-27T07:23:04;102482.69;;;3.15;nan
14343;BME280;7255;53.596;9.960;2023-01-27T07:25:32;102480.03;;;2.94;nan
14343;BME280;7255;53.596;9.960;2023-01-27T07:28:00;102480.66;;;3.07;nan
14343;BME280;7255;53.596;9.960;2023-01-27T07:30:27;102485.75;;;3.20;nan
14343;BME280;7255;53.596;9.960;2023-01-27T07:32:54;102479.22;;;2.94;nan
14343;BME280;7255;53.596;9.960;2023-01-27T07:35:21;102503.34;;;3.12;nan
14343;BME280;7255;53.596;9.960;2023-01-27T07:37:47;102496.44;;;2.78;nan
14343;BME280;7255;53.596;9.960;2023-01-27T07:40:13;102501.81;;;2.88;nan
14343;BME280;7255;53.596;9.960;2023-01-27T07:42:40;102495.84;;;2.75;nan
14343;BME280;7255;53.596;9.960;2023-01-27T07:45:08;102501.50;;;2.81;nan
14343;BME280;7255;53.596;9.960;2023-01-27T07:47:35;102496.50;;;2.88;nan
14343;BME280;7255;53.596;9.960;2023-01-27T07:50:01;102509.72;;;2.99;nan
14343;BME280;7255;53.596;9.960;2023-01-27T07:52:28;102510.34;;;3.13;nan
14343;BME280;7255;53.596;9.960;2023-01-27T07:54:54;102507.75;;;3.01;nan
14343;BME280;7255;53.596;9.960;2023-01-27T07:57:20;102506.06;;;3.00;nan
14343;BME280;7255;53.596;9.960;2023-01-27T07:59:46;102504.44;;;3.09;nan
14343;BME280;7255;53.596;9.960;2023-01-27T08:02:14;102513.97;;;3.12;nan
14343;BME280;7255;53.596;9.960;2023-01-27T08:04:40;102512.03;;;3.14;nan
14343;BME280;7255;53.596;9.960;2023-01-27T08:07:07;102438.56;;;3.34;nan
14343;BME280;7255;53.596;9.960;2023-01-27T08:09:33;102512.03;;;3.14;nan
14343;BME280;7255;53.596;9.960;2023-01-27T08:11:59;102522.38;;;3.17;nan
14343;BME280;7255;53.596;9.960;2023-01-27T08:14:25;102515.28;;;2.96;nan
14343;BME280;7255;53.596;9.960;2023-01-27T08:16:52;102517.47;;;2.91;nan
14343;BME280;7255;53.596;9.960;2023-01-27T08:19:19;102514.69;;;2.93;nan
14343;BME280;7255;53.596;9.960;2023-01-27T08:21:46;102516.41;;;2.94;nan
14343;BME280;7255;53.596;9.960;2023-01-27T08:24:12;102532.22;;;3.26;nan
14343;BME280;7255;53.596;9.960;2023-01-27T08:26:38;102525.19;;;3.15;nan
14343;BME280;7255;53.596;9.960;2023-01-27T08:29:05;102518.44;;;3.11;nan
14343;BME280;7255;53.596;9.960;2023-01-27T08:31:31;102525.41;;;3.02;nan
14343;BME280;7255;53.596;9.960;2023-01-27T08:33:57;102533.00;;;3.17;nan
14343;BME280;7255;53.596;9.960;2023-01-27T08:36:25;102540.91;;;3.28;nan
14343;BME280;7255;53.596;9.960;2023-01-27T08:38:52;102531.75;;;2.90;nan
14343;BME280;7255;53.596;9.960;2023-01-27T08:41:20;102533.78;;;3.07;nan
14343;BME280;7255;53.596;9.960;2023-01-27T08:43:47;102531.22;;;2.96;nan
14343;BME280;7255;53.596;9.960;2023-01-27T08:46:14;102532.50;;;3.23;nan
14343;BME280;7255;53.596;9.960;2023-01-27T08:48:41;102534.38;;;3.11;nan
14343;BME280;7255;53.596;9.960;2023-01-27T08:51:09;102514.22;;;3.08;nan
14343;BME280;7255;53.596;9.960;2023-01-27T08:53:37;102518.34;;;2.92;nan
14343;BME280;7255;53.596;9.960;2023-01-27T08:56:05;102537.56;;;2.84;nan
14343;BME280;7255;53.596;9.960;2023-01-27T08:58:32;102532.75;;;3.20;nan
14343;BME280;7255;53.596;9.960;2023-01-27T09:00:59;102533.75;;;2.98;nan
14343;BME280;7255;53.596;9.960;2023-01-27T09:03:26;102554.53;;;3.14;nan
14343;BME280;7255;53.596;9.960;2023-01-27T09:05:52;102547.44;;;2.93;nan
14343;BME280;7255;53.596;9.960;2023-01-27T09:08:19;102543.72;;;2.84;nan
14343;BME280;7255;53.596;9.960;2023-01-27T09:10:46;102554.47;;;3.04;nan
14343;BME280;7255;53.596;9.960;2023-01-27T09:13:13;102558.09;;;3.03;nan
14343;BME280;7255;53.596;9.960;2023-01-27T09:15:41;102559.75;;;3.04;nan
14343;BME280;7255;53.596;9.960;2023-01-27T09:18:08;102556.72;;;3.08;nan
14343;BME280;7255;53.596;9.960;2023-01-27T09:20:35;102567.38;;;3.08;nan
14343;BME280;7255;53.596;9.960;2023-01-27T09:23:02;102578.41;;;3.35;nan
14343;BME280;7255;53.596;9.960;2023-01-27T09:25:29;102517.41;;;3.33;nan
14343;BME280;7255;53.596;9.960;2023-01-27T09:27:58;102586.66;;;3.11;nan
14343;BME280;7255;53.596;9.960;2023-01-27T09:30:26;102568.28;;;2.77;nan
14343;BME280;7255;53.596;9.960;2023-01-27T09:32:56;102570.06;;;2.55;nan
14343;BME280;7255;53.596;9.960;2023-01-27T09:35:23;102581.22;;;2.91;nan
14343;BME280;7255;53.596;9.960;2023-01-27T09:37:53;102590.16;;;2.90;nan
14343;BME280;7255;53.596;9.960;2023-01-27T09:40:28;102567.69;;;2.73;nan
14343;BME280;7255;53.596;9.960;2023-01-27T09:43:17;102582.06;;;2.92;nan
14343;BME280;7255;53.596;9.960;2023-01-27T09:48:48;102571.69;;;2.88;nan
14343;BME280;7255;53.596;9.960;2023-01-27T09:51:22;102568.28;;;2.77;nan
14343;BME280;7255;53.596;9.960;2023-01-27T09:54:05;102573.88;;;2.83;nan
14343;BME280;7255;53.596;9.960;2023-01-27T09:56:44;102581.53;;;2.98;nan
14343;BME280;7255;53.596;9.960;2023-01-27T09:59:38;102570.09;;;2.97;nan
14343;BME280;7255;53.596;9.960;2023-01-27T10:02:15;102568.53;;;3.16;nan
14343;BME280;7255;53.596;9.960;2023-01-27T10:05:03;102581.09;;;3.14;nan
14343;BME280;7255;53.596;9.960;2023-01-27T10:07:55;102579.19;;;2.83;nan
14343;BME280;7255;53.596;9.960;2023-01-27T10:10:40;102583.94;;;2.80;nan
14343;BME280;7255;53.596;9.960;2023-01-27T10:13:17;102584.91;;;3.00;nan
14343;BME280;7255;53.596;9.960;2023-01-27T10:16:03;102579.41;;;3.13;nan
14343;BME280;7255;53.596;9.960;2023-01-27T10:18:52;102583.16;;;2.89;nan
14343;BME280;7255;53.596;9.960;2023-01-27T10:21:27;102575.00;;;2.81;nan
14343;BME280;7255;53.596;9.960;2023-01-27T10:24:03;102572.09;;;3.05;nan
14343;BME280;7255;53.596;9.960;2023-01-27T10:26:35;102579.94;;;3.06;nan
14343;BME280;7255;53.596;9.960;2023-01-27T10:29:08;102572.53;;;2.89;nan
14343;BME280;7255;53.596;9.960;2023-01-27T10:31:40;102542.88;;;2.84;nan
14343;BME280;7255;53.596;9.960;2023-01-27T10:34:20;102579.09;;;3.06;nan
14343;BME280;7255;53.596;9.960;2023-01-27T10:36:55;102577.06;;;2.98;nan
14343;BME280;7255;53.596;9.960;2023-01-27T10:39:29;102572.87;;;2.96;nan
14343;BME280;7255;53.596;9.960;2023-01-27T10:42:06;102583.88;;;3.12;nan
14343;BME280;7255;53.596;9.960;2023-01-27T10:44:46;102584.84;;;3.32;nan
14343;BME280;7255;53.596;9.960;2023-01-27T10:47:27;102584.25;;;3.28;nan
14343;BME280;7255;53.596;9.960;2023-01-27T10:49:59;102587.22;;;3.66;nan
14343;BME280;7255;53.596;9.960;2023-01-27T10:52:31;102584.41;;;3.58;nan
14343;BME280;7255;53.596;9.960;2023-01-27T10:55:04;102588.25;;;3.44;nan
14343;BME280;7255;53.596;9.960;2023-01-27T10:57:41;102575.37;;;3.39;nan
14343;BME280;7255;53.596;9.960;2023-01-27T11:00:13;102577.91;;;3.41;nan
14343;BME280;7255;53.596;9.960;2023-01-27T11:02:48;102586.63;;;3.53;nan
14343;BME280;7255;53.596;9.960;2023-01-27T11:05:21;102583.00;;;3.54;nan
14343;BME280;7255;53.596;9.960;2023-01-27T11:07:53;102586.72;;;3.72;nan
14343;BME280;7255;53.596;9.960;2023-01-27T11:10:22;102583.34;;;3.70;nan
14343;BME280;7255;53.596;9.960;2023-01-27T11:12:54;102580.59;;;3.81;nan
14343;BME280;7255;53.596;9.960;2023-01-27T11:15:25;102587.81;;;3.70;nan
14343;BME280;7255;53.596;9.960;2023-01-27T11:17:59;102557.03;;;3.67;nan
14343;BME280;7255;53.596;9.960;2023-01-27T11:20:29;102573.41;;;3.41;nan
14343;BME280;7255;53.596;9.960;2023-01-27T11:22:59;102566.94;;;3.34;nan
14343;BME280;7255;53.596;9.960;2023-01-27T11:25:42;102573.41;;;3.41;nan
14343;BME280;7255;53.596;9.960;2023-01-27T11:28:18;102577.16;;;3.70;nan
14343;BME280;7255;53.596;9.960;2023-01-27T11:30:54;102576.56;;;3.56;nan
14343;BME280;7255;53.596;9.960;2023-01-27T11:33:27;102580.75;;;3.59;nan
14343;BME280;7255;53.596;9.960;2023-01-27T11:35:56;102572.00;;;3.37;nan
14343;BME280;7255;53.596;9.960;2023-01-27T11:38:22;102570.84;;;3.30;nan
14343;BME280;7255;53.596;9.960;2023-01-27T11:40:50;102569.78;;;3.42;nan
14343;BME280;7255;53.596;9.960;2023-01-27T11:43:20;102569.25;;;3.49;nan
14343;BME280;7255;53.596;9.960;2023-01-27T11:45:50;102576.81;;;3.53;nan
14343;BME280;7255;53.596;9.960;2023-01-27T11:48:18;102559.94;;;3.33;nan
14343;BME280;7255;53.596;9.960;2023-01-27T11:50:46;102564.38;;;3.23;nan
14343;BME280;7255;53.596;9.960;2023-01-27T11:53:17;102562.44;;;3.25;nan
14343;BME280;7255;53.596;9.960;2023-01-27T11:55:47;102554.38;;;3.36;nan
14343;BME280;7255;53.596;9.960;2023-01-27T11:58:21;102564.53;;;3.52;nan
14343;BME280;7255;53.596;9.960;2023-01-27T12:00:54;102565.44;;;3.72;nan
14343;BME280;7255;53.596;9.960;2023-01-27T12:03:25;102546.53;;;3.35;nan
14343;BME280;7255;53.596;9.960;2023-01-27T12:06:00;102559.63;;;3.26;nan
14343;BME280;7255;53.596;9.960;2023-01-27T12:08:39;102564.81;;;3.59;nan
14343;BME280;7255;53.596;9.960;2023-01-27T12:11:20;102560.88;;;3.53;nan
14343;BME280;7255;53.596;9.960;2023-01-27T12:13:52;102547.41;;;3.45;nan
14343;BME280;7255;53.596;9.960;2023-01-27T12:16:19;102555.78;;;3.40;nan
14343;BME280;7255;53.596;9.960;2023-01-27T12:18:49;102544.28;;;3.30;nan
14343;BME280;7255;53.596;9.960;2023-01-27T12:21:18;102547.09;;;3.38;nan
14343;BME280;7255;53.596;9.960;2023-01-27T12:23:50;102547.16;;;3.48;nan
14343;BME280;7255;53.596;9.960;2023-01-27T12:26:29;102554.84;;;3.92;nan
14343;BME280;7255;53.596;9.960;2023-01-27T12:28:58;102549.50;;;3.72;nan
14343;BME280;7255;53.596;9.960;2023-01-27T12:31:29;102545.25;;;3.70;nan
14343;BME280;7255;53.596;9.960;2023-01-27T12:33:59;102539.72;;;3.82;nan
14343;BME280;7255;53.596;9.960;2023-01-27T12:36:35;102555.94;;;3.79;nan
14343;BME280;7255;53.596;9.960;2023-01-27T12:39:03;102555.06;;;3.69;nan
14343;BME280;7255;53.596;9.960;2023-01-27T12:41:33;102552.78;;;3.64;nan
14343;BME280;7255;53.596;9.960;2023-01-27T12:44:07;102522.09;;;3.81;nan
14343;BME280;7255;53.596;9.960;2023-01-27T12:46:34;102525.03;;;3.47;nan
14343;BME280;7255;53.596;9.960;2023-01-27T12:49:06;102558.09;;;3.55;nan
14343;BME280;7255;53.596;9.960;2023-01-27T12:51:38;102538.37;;;3.26;nan
14343;BME280;7255;53.596;9.960;2023-01-27T12:54:18;102558.87;;;3.45;nan
14343;BME280;7255;53.596;9.960;2023-01-27T12:56:46;102555.53;;;3.43;nan
14343;BME280;7255;53.596;9.960;2023-01-27T12:59:14;102517.41;;;3.33;nan
14343;BME280;7255;53.596;9.960;2023-01-27T13:01:41;102548.50;;;3.42;nan
14343;BME280;7255;53.596;9.960;2023-01-27T13:04:14;102548.00;;;3.49;nan
14343;BME280;7255;53.596;9.960;2023-01-27T13:06:45;102554.72;;;3.53;nan
14343;BME280;7255;53.596;9.960;2023-01-27T13:09:25;102544.28;;;3.30;nan
14343;BME280;7255;53.596;9.960;2023-01-27T13:11:53;102545.44;;;3.37;nan
14343;BME280;7255;53.596;9.960;2023-01-27T13:14:21;102545.78;;;3.54;nan
14343;BME280;7255;53.596;9.960;2023-01-27T13:16:51;102563.16;;;3.58;nan
14343;BME280;7255;53.596;9.960;2023-01-27T13:19:20;102542.63;;;3.39;nan
14343;BME280;7255;53.596;9.960;2023-01-27T13:21:49;102551.34;;;3.51;nan
14343;BME280;7255;53.596;9.960;2023-01-27T13:24:26;102541.66;;;3.80;nan
14343;BME280;7255;53.596;9.960;2023-01-27T13:26:56;102522.50;;;3.46;nan
14343;BME280;7255;53.596;9.960;2023-01-27T13:29:26;102518.75;;;3.18;nan
14343;BME280;7255;53.596;9.960;2023-01-27T13:31:57;102545.50;;;3.57;nan
14343;BME280;7255;53.596;9.960;2023-01-27T13:34:32;102551.13;;;3.63;nan
14343;BME280;7255;53.596;9.960;2023-01-27T13:37:07;102544.16;;;3.72;nan
14343;BME280;7255;53.596;9.960;2023-01-27T13:39:55;102539.44;;;3.85;nan
14343;BME280;7255;53.596;9.960;2023-01-27T13:42:27;102533.12;;;3.46;nan
14343;BME280;7255;53.596;9.960;2023-01-27T13:44:59;102527.97;;;3.14;nan
14343;BME280;7255;53.596;9.960;2023-01-27T13:47:29;102499.25;;;3.38;nan